createdAt,value
2023-05-07T00:01:46.768Z,68.78
2023-05-07T00:04:53.680Z,68.39
2023-05-07T00:07:59.845Z,69.46
2023-05-07T00:11:08.982Z,69.06
2023-05-07T00:14:14.484Z,69.93
2023-05-07T00:17:21.181Z,70.05
2023-05-07T00:20:26.714Z,70.31
2023-05-07T00:23:33.058Z,70.56
2023-05-07T00:26:41.319Z,70.84
2023-05-07T00:29:47.670Z,71.77
2023-05-07T00:32:53.188Z,71.58
2023-05-07T00:35:59.669Z,72.46
2023-05-07T00:39:05.942Z,72.37
2023-05-07T00:42:16.317Z,72.22
2023-05-07T00:45:22.029Z,72.34
2023-05-07T00:48:30.310Z,73.21
2023-05-07T00:51:38.325Z,73.07
2023-05-07T00:54:46.655Z,73.19
2023-05-07T00:57:55.819Z,73.00
2023-05-07T01:01:02.350Z,72.70
2023-05-07T01:04:08.032Z,72.76
2023-05-07T01:07:15.169Z,72.23
2023-05-07T01:10:22.562Z,72.58
2023-05-07T01:13:32.939Z,72.89
2023-05-07T01:16:38.717Z,71.76
2023-05-07T01:19:45.354Z,72.26
2023-05-07T01:22:55.050Z,71.57
2023-05-07T01:26:01.436Z,71.57
2023-05-07T01:29:09.015Z,71.54
2023-05-07T01:32:19.916Z,71.23
2023-05-07T01:35:36.629Z,71.81
2023-05-07T01:38:47.304Z,71.22
2023-05-07T01:41:53.995Z,70.55
2023-05-07T01:45:01.120Z,70.37
2023-05-07T01:48:08.265Z,70.41
2023-05-07T01:51:14.634Z,69.13
2023-05-07T01:54:23.141Z,69.81
2023-05-07T01:57:29.490Z,68.66
2023-05-07T02:00:36.076Z,68.33
2023-05-07T02:03:43.213Z,68.03
2023-05-07T02:06:57.029Z,68.02
2023-05-07T02:10:07.505Z,68.95
2023-05-07T02:13:13.140Z,69.41
2023-05-07T02:16:20.720Z,67.85
2023-05-07T02:19:26.704Z,68.60
2023-05-07T02:22:33.289Z,68.35
2023-05-07T02:25:42.206Z,69.06
2023-05-07T02:28:48.681Z,69.20
2023-05-07T02:31:54.412Z,68.48
2023-05-07T02:35:01.136Z,67.94
2023-05-07T02:38:06.767Z,68.42
2023-05-07T02:41:17.078Z,68.08
2023-05-07T02:44:22.534Z,69.34
2023-05-07T02:47:31.180Z,69.10
2023-05-07T02:50:38.250Z,69.20
2023-05-07T02:53:44.869Z,69.27
2023-05-07T02:56:53.196Z,68.76
2023-05-07T02:59:59.551Z,69.14
2023-05-07T03:03:07.843Z,69.29
2023-05-07T03:06:14.559Z,69.01
2023-05-07T03:09:20.631Z,68.06
2023-05-07T03:12:29.929Z,68.97
2023-05-07T03:15:35.855Z,68.28
2023-05-07T03:18:42.295Z,68.11
2023-05-07T03:21:47.826Z,68.72
2023-05-07T03:24:54.274Z,68.94
2023-05-07T03:28:02.660Z,69.17
2023-05-07T03:31:18.431Z,69.56
2023-05-07T03:34:24.074Z,69.61
2023-05-07T03:37:30.795Z,69.67
2023-05-07T03:40:36.878Z,69.32
2023-05-07T03:43:47.598Z,69.48
2023-05-07T03:46:53.343Z,69.40
2023-05-07T03:50:00.705Z,68.87
2023-05-07T03:53:06.227Z,69.25
2023-05-07T03:56:18.452Z,69.88
2023-05-07T03:59:28.596Z,69.50
2023-05-07T04:02:35.202Z,68.91
2023-05-07T04:05:42.326Z,69.10
2023-05-07T04:08:48.748Z,68.58
2023-05-07T04:11:54.448Z,68.98
2023-05-07T04:15:03.653Z,69.17
2023-05-07T04:18:09.517Z,69.21
2023-05-07T04:21:21.527Z,69.32
2023-05-07T04:24:29.170Z,69.38
2023-05-07T04:27:35.802Z,69.59
2023-05-07T04:30:44.922Z,69.58
2023-05-07T04:33:51.936Z,70.32
2023-05-07T04:36:58.242Z,70.47
2023-05-07T04:40:04.654Z,70.27
2023-05-07T04:43:10.719Z,69.76
2023-05-07T04:46:27.944Z,69.73
2023-05-07T04:49:36.175Z,69.40
2023-05-07T04:52:42.850Z,68.94
2023-05-07T04:55:49.106Z,68.78
2023-05-07T04:58:55.625Z,68.48
2023-05-07T05:02:05.401Z,68.54
2023-05-07T05:05:13.023Z,68.59
2023-05-07T05:08:18.909Z,68.33
2023-05-07T05:11:26.023Z,67.88
2023-05-07T05:14:32.861Z,68.47
2023-05-07T05:17:43.356Z,68.14
2023-05-07T05:20:49.661Z,68.55
2023-05-07T05:23:56.280Z,68.88
2023-05-07T05:27:04.319Z,68.80
2023-05-07T05:30:13.424Z,69.22
2023-05-07T05:33:23.700Z,68.92
2023-05-07T05:36:30.435Z,68.40
2023-05-07T05:39:37.132Z,68.59
2023-05-07T05:42:44.495Z,67.92
2023-05-07T05:45:51.243Z,67.81
2023-05-07T05:49:01.064Z,68.23
2023-05-07T05:52:07.586Z,67.38
2023-05-07T05:55:15.108Z,67.41
2023-05-07T05:58:20.966Z,67.94
2023-05-07T06:01:33.007Z,68.20
2023-05-07T06:04:44.317Z,67.89
2023-05-07T06:07:54.085Z,68.04
2023-05-07T06:11:00.696Z,68.43
2023-05-07T06:14:08.748Z,68.42
2023-05-07T06:17:14.838Z,68.30
2023-05-07T06:20:24.578Z,68.44
2023-05-07T06:23:30.239Z,68.26
2023-05-07T06:26:36.736Z,69.23
2023-05-07T06:29:42.472Z,68.57
2023-05-07T06:32:54.166Z,69.52
2023-05-07T06:36:02.686Z,69.05
2023-05-07T06:39:09.439Z,68.77
2023-05-07T06:42:15.688Z,67.54
2023-05-07T06:45:25.456Z,68.11
2023-05-07T06:48:33.413Z,67.54
2023-05-07T06:51:47.666Z,67.03
2023-05-07T06:54:53.247Z,67.21
2023-05-07T06:58:02.467Z,67.18
2023-05-07T07:01:08.593Z,66.54
2023-05-07T07:04:16.359Z,66.38
2023-05-07T07:07:27.242Z,66.57
2023-05-07T07:10:33.631Z,65.99
2023-05-07T07:13:41.412Z,65.76
2023-05-07T07:16:48.261Z,66.02
2023-05-07T07:19:55.989Z,65.03
2023-05-07T07:23:05.549Z,65.13
2023-05-07T07:26:11.253Z,65.18
2023-05-07T07:29:17.893Z,65.33
2023-05-07T07:32:23.452Z,64.99
2023-05-07T07:35:31.633Z,64.62
2023-05-07T07:38:40.462Z,64.44
2023-05-07T07:41:47.711Z,64.16
2023-05-07T07:44:54.440Z,63.20
2023-05-07T07:48:03.133Z,63.36
2023-05-07T07:51:12.466Z,63.37
2023-05-07T07:54:21.964Z,63.59
2023-05-07T07:57:27.869Z,63.30
2023-05-07T08:00:34.853Z,63.27
2023-05-07T08:03:40.820Z,62.75
2023-05-07T08:06:47.506Z,63.36
2023-05-07T08:09:56.686Z,63.03
2023-05-07T08:13:05.962Z,63.05
2023-05-07T08:16:13.377Z,62.90
2023-05-07T08:19:21.023Z,62.14
2023-05-07T08:22:26.627Z,62.67
2023-05-07T08:25:38.742Z,61.50
2023-05-07T08:28:44.753Z,61.89
2023-05-07T08:31:51.167Z,62.27
2023-05-07T08:34:56.920Z,62.08
2023-05-07T08:38:03.345Z,62.23
2023-05-07T08:41:14.738Z,62.23
2023-05-07T08:44:31.188Z,61.54
2023-05-07T08:47:46.768Z,62.24
2023-05-07T08:50:54.642Z,62.53
2023-05-07T08:54:02.083Z,62.35
2023-05-07T08:57:14.994Z,62.35
2023-05-07T09:00:21.414Z,62.28
2023-05-07T09:03:30.804Z,62.44
2023-05-07T09:06:39.342Z,62.10
2023-05-07T09:09:45.843Z,61.42
2023-05-07T09:12:55.463Z,60.94
2023-05-07T09:16:01.975Z,61.69
2023-05-07T09:19:07.861Z,61.52
2023-05-07T09:22:14.936Z,62.03
2023-05-07T09:25:45.050Z,62.19
2023-05-07T09:29:01.540Z,63.35
2023-05-07T09:32:09.682Z,62.69
2023-05-07T09:35:22.817Z,62.61
2023-05-07T09:38:33.371Z,62.64
2023-05-07T09:41:48.948Z,62.25
2023-05-07T09:45:19.157Z,61.57
2023-05-07T09:48:26.262Z,61.45
2023-05-07T09:51:43.145Z,62.03
2023-05-07T09:54:54.428Z,61.63
2023-05-07T09:58:04.724Z,61.97
2023-05-07T10:01:16.979Z,61.57
2023-05-07T10:04:25.663Z,61.79
2023-05-07T10:07:34.106Z,61.75
2023-05-07T10:10:46.132Z,61.70
2023-05-07T10:13:58.005Z,61.39
2023-05-07T10:17:07.438Z,61.65
2023-05-07T10:20:15.385Z,61.56
2023-05-07T10:23:30.218Z,61.11
2023-05-07T10:26:41.890Z,61.35
2023-05-07T10:30:09.845Z,61.50
2023-05-07T10:33:30.159Z,61.70
2023-05-07T10:36:38.580Z,61.38
2023-05-07T10:39:47.011Z,61.12
2023-05-07T10:43:01.927Z,60.99
2023-05-07T10:46:22.632Z,61.72
2023-05-07T10:50:06.747Z,61.93
2023-05-07T10:53:30.878Z,61.61
2023-05-07T10:56:49.016Z,61.39
2023-05-07T11:00:01.185Z,61.98
2023-05-07T11:03:13.274Z,61.49
2023-05-07T11:06:29.124Z,61.67
2023-05-07T11:10:05.263Z,61.72
2023-05-07T11:13:57.414Z,61.89
2023-05-07T11:17:35.710Z,60.93
2023-05-07T11:20:54.549Z,60.62
2023-05-07T11:24:23.368Z,59.56
2023-05-07T11:27:38.344Z,58.48
2023-05-07T11:30:47.613Z,58.04
2023-05-07T11:33:58.919Z,59.30
2023-05-07T11:37:06.787Z,58.76
2023-05-07T11:40:31.280Z,59.50
2023-05-07T11:43:37.791Z,59.93
2023-05-07T11:46:48.407Z,60.39
2023-05-07T11:50:17.177Z,60.42
2023-05-07T11:53:28.817Z,60.60
2023-05-07T11:56:39.693Z,61.05
2023-05-07T11:59:46.544Z,60.85
2023-05-07T12:02:52.318Z,60.77
2023-05-07T12:05:59.253Z,60.88
2023-05-07T12:09:06.242Z,61.18
2023-05-07T12:12:16.899Z,61.50
2023-05-07T12:15:26.954Z,61.07
2023-05-07T12:18:34.236Z,60.83
2023-05-07T12:21:40.596Z,60.46
2023-05-07T12:24:51.739Z,60.42
2023-05-07T12:28:00.225Z,60.06
2023-05-07T12:31:07.296Z,59.71
2023-05-07T12:34:14.824Z,58.35
2023-05-07T12:37:30.305Z,57.24
2023-05-07T12:40:42.307Z,56.69
2023-05-07T12:43:51.957Z,57.72
2023-05-07T12:46:57.624Z,56.13
2023-05-07T12:50:04.021Z,55.98
2023-05-07T12:53:16.774Z,55.51
2023-05-07T12:56:23.372Z,57.07
2023-05-07T12:59:44.561Z,56.29
2023-05-07T13:02:51.480Z,56.36
2023-05-07T13:06:16.407Z,57.03
2023-05-07T13:09:33.336Z,57.23
2023-05-07T13:12:54.553Z,57.47
2023-05-07T13:16:04.385Z,57.56
2023-05-07T13:19:09.907Z,57.95
2023-05-07T13:22:16.368Z,58.44
2023-05-07T13:25:22.170Z,57.89
2023-05-07T13:28:30.551Z,58.12
2023-05-07T13:31:39.035Z,57.33
2023-05-07T13:34:45.544Z,57.19
2023-05-07T13:37:53.316Z,57.48
2023-05-07T13:40:59.663Z,56.41
2023-05-07T13:44:05.499Z,57.50
2023-05-07T13:47:15.311Z,56.94
2023-05-07T13:50:21.019Z,56.93
2023-05-07T13:53:27.773Z,57.56
2023-05-07T13:56:33.704Z,57.30
2023-05-07T13:59:40.117Z,56.90
2023-05-07T14:02:48.603Z,57.09
2023-05-07T14:05:55.059Z,57.35
2023-05-07T14:09:01.508Z,57.69
2023-05-07T14:12:12.279Z,58.17
2023-05-07T14:15:18.968Z,58.16
2023-05-07T14:18:30.052Z,57.62
2023-05-07T14:21:35.696Z,58.10
2023-05-07T14:27:48.403Z,57.71
2023-05-07T14:30:54.925Z,58.12
2023-05-07T14:34:03.727Z,58.05
2023-05-07T14:37:10.396Z,57.66
2023-05-07T14:40:16.802Z,57.57
2023-05-07T14:43:23.427Z,56.91
2023-05-07T14:46:29.721Z,57.40
2023-05-07T14:49:39.351Z,57.75
2023-05-07T14:52:45.096Z,56.42
2023-05-07T14:55:52.493Z,56.07
2023-05-07T14:58:58.186Z,54.96
2023-05-07T15:02:07.166Z,55.05
2023-05-07T15:05:16.097Z,56.13
2023-05-07T15:08:22.757Z,56.33
2023-05-07T15:11:28.578Z,56.89
2023-05-07T15:14:35.112Z,58.32
2023-05-07T15:17:41.128Z,58.63
2023-05-07T15:20:50.825Z,58.71
2023-05-07T15:23:56.479Z,58.85
2023-05-07T15:27:03.999Z,59.41
2023-05-07T15:30:15.487Z,59.78
2023-05-07T15:33:21.914Z,59.72
2023-05-07T15:36:31.158Z,59.31
2023-05-07T15:39:38.720Z,59.34
2023-05-07T15:42:44.424Z,59.24
2023-05-07T15:45:51.098Z,59.05
2023-05-07T15:48:58.228Z,59.01
2023-05-07T15:52:08.024Z,59.03
2023-05-07T15:55:14.082Z,58.54
2023-05-07T15:58:21.543Z,58.35
2023-05-07T16:01:27.360Z,58.20
2023-05-07T16:04:33.988Z,58.16
2023-05-07T16:07:45.010Z,57.81
2023-05-07T16:10:51.655Z,58.19
2023-05-07T16:13:57.457Z,57.76
2023-05-07T16:17:04.105Z,58.39
2023-05-07T16:20:13.353Z,57.81
2023-05-07T16:23:22.993Z,57.93
2023-05-07T16:26:28.683Z,58.01
2023-05-07T16:29:35.307Z,57.12
2023-05-07T16:32:41.215Z,57.33
2023-05-07T16:35:55.060Z,57.71
2023-05-07T16:39:04.741Z,57.80
2023-05-07T16:42:11.411Z,57.82
2023-05-07T16:45:19.025Z,57.84
2023-05-07T16:48:25.791Z,58.54
2023-05-07T16:51:31.946Z,58.38
2023-05-07T16:54:42.395Z,58.52
2023-05-07T16:57:48.753Z,58.73
2023-05-07T17:00:55.703Z,59.26
2023-05-07T17:04:01.825Z,58.74
2023-05-07T17:07:08.976Z,58.67
2023-05-07T17:10:18.302Z,58.79
2023-05-07T17:13:25.336Z,58.75
2023-05-07T17:16:32.712Z,58.80
2023-05-07T17:19:42.287Z,58.59
2023-05-07T17:22:48.075Z,58.50
2023-05-07T17:25:58.014Z,58.34
2023-05-07T17:29:03.960Z,58.75
2023-05-07T17:32:11.127Z,57.97
2023-05-07T17:35:17.018Z,58.05
2023-05-07T17:38:24.122Z,58.33
2023-05-07T17:41:32.968Z,58.21
2023-05-07T17:44:40.327Z,58.29
2023-05-07T17:47:46.252Z,58.37
2023-05-07T17:50:53.065Z,58.13
2023-05-07T17:54:00.196Z,57.96
2023-05-07T17:57:09.872Z,57.74
2023-05-07T18:00:17.549Z,57.67
2023-05-07T18:03:29.593Z,57.91
2023-05-07T18:06:37.619Z,57.62
2023-05-07T18:09:46.512Z,58.00
2023-05-07T18:12:57.391Z,57.84
2023-05-07T18:16:08.234Z,57.61
2023-05-07T18:19:14.140Z,58.21
2023-05-07T18:22:22.077Z,57.87
2023-05-07T18:25:28.475Z,57.46
2023-05-07T18:28:38.433Z,57.60
2023-05-07T18:31:45.491Z,57.75
2023-05-07T18:34:52.833Z,57.54
2023-05-07T18:38:00.161Z,57.68
2023-05-07T18:41:09.187Z,57.71
2023-05-07T18:44:21.154Z,57.95
2023-05-07T18:47:28.194Z,58.08
2023-05-07T18:50:36.388Z,58.27
2023-05-07T18:53:44.766Z,58.26
2023-05-07T18:56:52.472Z,57.86
2023-05-07T19:00:02.219Z,57.74
2023-05-07T19:03:08.960Z,57.65
2023-05-07T19:06:16.363Z,57.97
2023-05-07T19:09:24.791Z,58.24
2023-05-07T19:12:31.585Z,58.15
2023-05-07T19:15:42.060Z,58.12
2023-05-07T19:18:55.054Z,58.23
2023-05-07T19:22:12.939Z,58.44
2023-05-07T19:25:25.448Z,58.36
2023-05-07T19:28:34.757Z,58.19
2023-05-07T19:31:46.279Z,58.44
2023-05-07T19:34:59.237Z,58.42
2023-05-07T19:38:08.432Z,58.08
2023-05-07T19:41:14.984Z,58.20
2023-05-07T19:44:25.504Z,58.24
2023-05-07T19:47:36.627Z,57.98
2023-05-07T19:50:43.820Z,58.51
2023-05-07T19:53:50.033Z,58.62
2023-05-07T19:56:59.322Z,58.86
2023-05-07T20:00:06.252Z,59.38
2023-05-07T20:03:23.292Z,59.33
2023-05-07T20:06:30.148Z,59.63
2023-05-07T20:09:39.661Z,59.56
2023-05-07T20:12:47.205Z,59.71
2023-05-07T20:15:54.323Z,59.70
2023-05-07T20:19:03.071Z,59.80
2023-05-07T20:22:09.965Z,60.19
2023-05-07T20:25:16.483Z,59.58
2023-05-07T20:28:24.530Z,59.37
2023-05-07T20:31:32.547Z,59.33
2023-05-07T20:34:42.436Z,59.32
2023-05-07T20:37:48.690Z,59.27
2023-05-07T20:40:55.872Z,59.21
2023-05-07T20:44:02.652Z,59.10
2023-05-07T20:47:09.489Z,59.08
2023-05-07T20:50:18.867Z,59.23
2023-05-07T20:53:25.555Z,58.97
2023-05-07T20:56:31.734Z,58.58
2023-05-07T20:59:40.455Z,58.63
2023-05-07T21:02:47.419Z,58.21
2023-05-07T21:06:00.934Z,57.92
2023-05-07T21:09:06.953Z,58.32
2023-05-07T21:12:16.066Z,58.39
2023-05-07T21:15:22.270Z,58.84
2023-05-07T21:18:31.120Z,58.75
2023-05-07T21:21:39.770Z,59.12
2023-05-07T21:24:46.321Z,59.26
2023-05-07T21:27:52.070Z,59.56
2023-05-07T21:30:58.639Z,58.98
2023-05-07T21:34:04.414Z,59.68
2023-05-07T21:37:13.777Z,59.76
2023-05-07T21:40:19.859Z,59.92
2023-05-07T21:43:26.341Z,60.86
2023-05-07T21:46:31.996Z,60.92
2023-05-07T21:49:38.590Z,61.39
2023-05-07T21:52:47.121Z,61.48
2023-05-07T21:55:53.693Z,61.69
2023-05-07T21:58:59.243Z,61.84
2023-05-07T22:02:05.934Z,61.56
2023-05-07T22:05:12.974Z,61.16
2023-05-07T22:08:22.648Z,61.55
2023-05-07T22:11:28.372Z,61.33
2023-05-07T22:14:34.710Z,62.06
2023-05-07T22:17:40.446Z,60.93
2023-05-07T22:20:46.851Z,61.50
2023-05-07T22:23:55.210Z,61.73
2023-05-07T22:27:01.571Z,61.70
2023-05-07T22:30:07.944Z,61.59
2023-05-07T22:33:14.311Z,61.46
2023-05-07T22:36:19.801Z,61.21
2023-05-07T22:39:31.529Z,61.40
2023-05-07T22:42:37.022Z,60.79
2023-05-07T22:45:43.672Z,61.58
2023-05-07T22:48:49.424Z,60.84
2023-05-07T22:51:55.836Z,61.11
2023-05-07T22:55:04.267Z,61.98
2023-05-07T22:58:11.091Z,61.30
2023-05-07T23:01:18.933Z,60.80
2023-05-07T23:04:25.861Z,61.23
2023-05-07T23:07:31.961Z,60.99
2023-05-07T23:10:41.307Z,60.85
2023-05-07T23:13:46.829Z,60.26
2023-05-07T23:16:53.489Z,60.37
2023-05-07T23:19:59.175Z,60.70
2023-05-07T23:23:05.966Z,60.22
2023-05-07T23:26:14.365Z,60.75
2023-05-07T23:29:20.714Z,61.00
2023-05-07T23:32:26.586Z,60.42
2023-05-07T23:35:32.982Z,60.75
2023-05-07T23:38:38.741Z,61.03
2023-05-07T23:41:48.508Z,61.19
2023-05-07T23:44:54.092Z,61.11
2023-05-07T23:48:01.471Z,60.52
2023-05-07T23:51:07.584Z,60.82
2023-05-07T23:54:13.911Z,60.01
2023-05-07T23:57:22.132Z,60.72
